Aérodrome :
LOGIN :

S'inscrire | Disclaimer

   EN    FR    IT 

 










Légende :    VFR   VFR Marginal   IFR   IFR Intensif   IFR Très Intensif
Visi : 
Plafond : 
>= 8 km
>= 3000ft
5 à 8 km
1000 à 3000 ft
1500m à 5 km
500 à 1000 ft
800 à 1500m
200 à 500 ft
< 800m
< 200 ft
Symboles :   Orages  Brouillard  Fortes neiges  Fortes précipitations  Vent > 20 kt
SIGMETs :   Divers  Orages  Givrage  Turbulence  Onde Orograph.  Cendres Volcan.






- Altitude de l'aérodrome : 458 ft


LFSI - St-Dizier

DERNIER METAR :
  • 051900Z AUTO VRB03KT 1700 1200 R11/1600D BR OVC002 M00/M00 Q1023

METARs EXPIRÉS :
  • 051830Z AUTO 18003KT 140V220 1400 1200 R11/1500D BR VV/// M00/M00 Q1023
  • 051800Z AUTO VRB03KT 1500 1400 R11/1700U BR VV/// M01/M01 Q1023
  • 051730Z AUTO 20003KT 0800 0750 R11/1000N FZFG VV/// M01/M01 Q1023
  • 051700Z AUTO VRB02KT 0550 0500 R11/0600N FZFG VV/// M01/M01 Q1024
  • 051630Z AUTO 28004KT 240V310 0600 0500 R11/0550N FZFG VV/// M01/M01 Q1024

TAF TAF LFSI
Valide du 05 à 15h jusqu'au 06 à 15h UTC


051400Z 0515/0615 18003KT 0300 FZFG VV///
BECMG 0608/0610 2000 BR BKN002 BKN005
BECMG 0610/0612 20010G20KT 4500 -RASN BKN010



MET'MAP, la Météo Aéronautique d'un coup d'oeil ! - Copyright ORBIFLY Décembre 2007 - Disclaimer

ORBIFLY MET'MAP TEAM :

Programmation & Développement : Alexandra Zaïnal
Sur une idée originale de : Baudouin d'Aumeries
Assistance à la programmation : Marc-Olivier Méhu
Soutien technique & logistique : Manuel Goepfert

Contact : metmap@orbifly.com




SOURCES & CREDITS :

   NOAA